sensor_id;sensor_type;location;lat;lon;timestamp;P1;durP1;ratioP1;P2;durP2;ratioP2
77736;SDS011;66903;59.926;30.404;2023-05-20T00:01:57;1.38;;;0.57;;
77736;SDS011;66903;59.926;30.404;2023-05-20T00:06:57;1.00;;;0.47;;
77736;SDS011;66903;59.926;30.404;2023-05-20T00:11:58;1.63;;;0.57;;
77736;SDS011;66903;59.926;30.404;2023-05-20T00:16:58;0.90;;;0.32;;
77736;SDS011;66903;59.926;30.404;2023-05-20T00:21:59;0.68;;;0.30;;
77736;SDS011;66903;59.926;30.404;2023-05-20T00:26:59;1.08;;;0.40;;
77736;SDS011;66903;59.926;30.404;2023-05-20T00:32:01;2.60;;;0.60;;
77736;SDS011;66903;59.926;30.404;2023-05-20T00:37:02;0.95;;;0.40;;
77736;SDS011;66903;59.926;30.404;2023-05-20T00:42:02;1.25;;;0.50;;
77736;SDS011;66903;59.926;30.404;2023-05-20T00:47:03;2.22;;;0.70;;
77736;SDS011;66903;59.926;30.404;2023-05-20T00:52:04;1.35;;;0.40;;
77736;SDS011;66903;59.926;30.404;2023-05-20T00:57:06;1.63;;;0.50;;
77736;SDS011;66903;59.926;30.404;2023-05-20T01:02:07;1.35;;;0.50;;
77736;SDS011;66903;59.926;30.404;2023-05-20T01:07:07;1.27;;;0.52;;
77736;SDS011;66903;59.926;30.404;2023-05-20T01:12:12;0.75;;;0.40;;
77736;SDS011;66903;59.926;30.404;2023-05-20T01:17:30;6.18;;;0.55;;
77736;SDS011;66903;59.926;30.404;2023-05-20T01:22:37;1.00;;;0.50;;
77736;SDS011;66903;59.926;30.404;2023-05-20T01:27:46;1.00;;;0.50;;
77736;SDS011;66903;59.926;30.404;2023-05-20T01:32:58;0.60;;;0.30;;
77736;SDS011;66903;59.926;30.404;2023-05-20T01:38:11;1.45;;;0.45;;
77736;SDS011;66903;59.926;30.404;2023-05-20T01:43:13;1.27;;;0.55;;
77736;SDS011;66903;59.926;30.404;2023-05-20T01:48:14;1.75;;;0.52;;
77736;SDS011;66903;59.926;30.404;2023-05-20T01:53:16;2.05;;;0.50;;
77736;SDS011;66903;59.926;30.404;2023-05-20T01:58:16;1.17;;;0.40;;
77736;SDS011;66903;59.926;30.404;2023-05-20T02:03:17;1.40;;;0.50;;
77736;SDS011;66903;59.926;30.404;2023-05-20T02:08:17;1.25;;;0.52;;
77736;SDS011;66903;59.926;30.404;2023-05-20T02:13:18;1.23;;;0.50;;
77736;SDS011;66903;59.926;30.404;2023-05-20T02:18:18;1.40;;;0.57;;
77736;SDS011;66903;59.926;30.404;2023-05-20T02:23:19;1.65;;;0.50;;
77736;SDS011;66903;59.926;30.404;2023-05-20T02:28:19;0.80;;;0.47;;
77736;SDS011;66903;59.926;30.404;2023-05-20T02:33:20;1.33;;;0.55;;
77736;SDS011;66903;59.926;30.404;2023-05-20T02:38:20;0.30;;;0.30;;
77736;SDS011;66903;59.926;30.404;2023-05-20T02:43:21;0.22;;;0.22;;
77736;SDS011;66903;59.926;30.404;2023-05-20T02:48:21;1.20;;;0.43;;
77736;SDS011;66903;59.926;30.404;2023-05-20T02:53:22;1.58;;;0.70;;
77736;SDS011;66903;59.926;30.404;2023-05-20T02:58:22;1.52;;;0.40;;
77736;SDS011;66903;59.926;30.404;2023-05-20T03:03:25;1.20;;;0.45;;
77736;SDS011;66903;59.926;30.404;2023-05-20T03:08:28;1.15;;;0.40;;
77736;SDS011;66903;59.926;30.404;2023-05-20T03:13:29;1.02;;;0.43;;
77736;SDS011;66903;59.926;30.404;2023-05-20T03:18:30;1.95;;;0.60;;
77736;SDS011;66903;59.926;30.404;2023-05-20T03:23:30;1.52;;;0.55;;
77736;SDS011;66903;59.926;30.404;2023-05-20T03:28:31;1.25;;;0.45;;
77736;SDS011;66903;59.926;30.404;2023-05-20T03:33:33;1.85;;;0.50;;
77736;SDS011;66903;59.926;30.404;2023-05-20T03:38:34;1.30;;;0.40;;
77736;SDS011;66903;59.926;30.404;2023-05-20T03:43:35;1.83;;;0.52;;
77736;SDS011;66903;59.926;30.404;2023-05-20T03:48:35;1.60;;;0.50;;
77736;SDS011;66903;59.926;30.404;2023-05-20T03:53:36;1.52;;;0.50;;
77736;SDS011;66903;59.926;30.404;2023-05-20T03:58:36;1.42;;;0.60;;
77736;SDS011;66903;59.926;30.404;2023-05-20T04:03:37;1.15;;;0.50;;
77736;SDS011;66903;59.926;30.404;2023-05-20T04:08:38;1.45;;;0.52;;
77736;SDS011;66903;59.926;30.404;2023-05-20T04:13:38;1.50;;;0.55;;
77736;SDS011;66903;59.926;30.404;2023-05-20T04:18:39;1.08;;;0.45;;
77736;SDS011;66903;59.926;30.404;2023-05-20T04:23:40;1.20;;;0.40;;
77736;SDS011;66903;59.926;30.404;2023-05-20T04:28:40;1.23;;;0.60;;
77736;SDS011;66903;59.926;30.404;2023-05-20T04:33:41;1.02;;;0.50;;
77736;SDS011;66903;59.926;30.404;2023-05-20T04:38:42;0.82;;;0.45;;
77736;SDS011;66903;59.926;30.404;2023-05-20T04:43:43;1.27;;;0.50;;
77736;SDS011;66903;59.926;30.404;2023-05-20T04:48:44;1.20;;;0.45;;
77736;SDS011;66903;59.926;30.404;2023-05-20T04:53:47;2.10;;;0.68;;
77736;SDS011;66903;59.926;30.404;2023-05-20T04:58:49;0.93;;;0.32;;
77736;SDS011;66903;59.926;30.404;2023-05-20T05:03:50;0.98;;;0.50;;
77736;SDS011;66903;59.926;30.404;2023-05-20T05:08:51;2.63;;;0.45;;
77736;SDS011;66903;59.926;30.404;2023-05-20T05:13:51;1.13;;;0.50;;
77736;SDS011;66903;59.926;30.404;2023-05-20T05:18:53;1.58;;;0.60;;
77736;SDS011;66903;59.926;30.404;2023-05-20T05:23:54;0.43;;;0.40;;
77736;SDS011;66903;59.926;30.404;2023-05-20T05:28:54;1.33;;;0.47;;
77736;SDS011;66903;59.926;30.404;2023-05-20T05:33:55;2.22;;;0.50;;
77736;SDS011;66903;59.926;30.404;2023-05-20T05:38:56;1.60;;;0.60;;
77736;SDS011;66903;59.926;30.404;2023-05-20T05:43:57;7.28;;;0.75;;
77736;SDS011;66903;59.926;30.404;2023-05-20T05:48:58;1.90;;;0.30;;
77736;SDS011;66903;59.926;30.404;2023-05-20T05:53:58;4.72;;;0.50;;
77736;SDS011;66903;59.926;30.404;2023-05-20T05:58:59;2.45;;;0.80;;
77736;SDS011;66903;59.926;30.404;2023-05-20T06:03:59;0.90;;;0.50;;
77736;SDS011;66903;59.926;30.404;2023-05-20T06:09:00;1.98;;;0.57;;
77736;SDS011;66903;59.926;30.404;2023-05-20T06:14:01;2.78;;;0.60;;
77736;SDS011;66903;59.926;30.404;2023-05-20T06:19:02;2.63;;;0.73;;
77736;SDS011;66903;59.926;30.404;2023-05-20T06:24:04;3.78;;;0.65;;
77736;SDS011;66903;59.926;30.404;2023-05-20T06:29:05;2.63;;;0.60;;
77736;SDS011;66903;59.926;30.404;2023-05-20T06:34:05;3.53;;;0.80;;
77736;SDS011;66903;59.926;30.404;2023-05-20T06:39:06;3.22;;;0.70;;
77736;SDS011;66903;59.926;30.404;2023-05-20T06:44:11;2.92;;;0.70;;
77736;SDS011;66903;59.926;30.404;2023-05-20T06:49:11;4.18;;;0.80;;
77736;SDS011;66903;59.926;30.404;2023-05-20T06:54:12;4.88;;;1.05;;
77736;SDS011;66903;59.926;30.404;2023-05-20T06:59:13;2.95;;;0.80;;
77736;SDS011;66903;59.926;30.404;2023-05-20T07:04:13;4.20;;;0.90;;
77736;SDS011;66903;59.926;30.404;2023-05-20T07:09:14;3.17;;;0.90;;
77736;SDS011;66903;59.926;30.404;2023-05-20T07:14:15;2.80;;;0.85;;
77736;SDS011;66903;59.926;30.404;2023-05-20T07:19:16;3.03;;;0.85;;
77736;SDS011;66903;59.926;30.404;2023-05-20T07:24:16;4.72;;;1.00;;
77736;SDS011;66903;59.926;30.404;2023-05-20T07:29:17;2.92;;;0.77;;
77736;SDS011;66903;59.926;30.404;2023-05-20T07:34:17;9.65;;;1.15;;
77736;SDS011;66903;59.926;30.404;2023-05-20T07:39:18;2.55;;;0.70;;
77736;SDS011;66903;59.926;30.404;2023-05-20T07:44:18;3.80;;;0.80;;
77736;SDS011;66903;59.926;30.404;2023-05-20T07:49:21;4.97;;;1.00;;
77736;SDS011;66903;59.926;30.404;2023-05-20T07:54:21;11.23;;;2.65;;
77736;SDS011;66903;59.926;30.404;2023-05-20T07:59:22;13.63;;;3.22;;
77736;SDS011;66903;59.926;30.404;2023-05-20T08:04:23;12.20;;;3.13;;
77736;SDS011;66903;59.926;30.404;2023-05-20T08:09:25;16.30;;;3.65;;
77736;SDS011;66903;59.926;30.404;2023-05-20T08:14:26;10.30;;;2.83;;
77736;SDS011;66903;59.926;30.404;2023-05-20T08:19:26;8.40;;;2.13;;
77736;SDS011;66903;59.926;30.404;2023-05-20T08:24:27;12.07;;;2.47;;
77736;SDS011;66903;59.926;30.404;2023-05-20T08:29:28;11.60;;;2.25;;
77736;SDS011;66903;59.926;30.404;2023-05-20T08:34:28;11.25;;;1.85;;
77736;SDS011;66903;59.926;30.404;2023-05-20T08:39:29;8.00;;;1.67;;
77736;SDS011;66903;59.926;30.404;2023-05-20T08:44:29;6.22;;;1.40;;
77736;SDS011;66903;59.926;30.404;2023-05-20T08:49:30;5.68;;;1.40;;
77736;SDS011;66903;59.926;30.404;2023-05-20T08:54:36;5.25;;;1.50;;
77736;SDS011;66903;59.926;30.404;2023-05-20T08:59:43;4.00;;;1.08;;
77736;SDS011;66903;59.926;30.404;2023-05-20T09:04:45;2.92;;;1.00;;
77736;SDS011;66903;59.926;30.404;2023-05-20T09:09:46;5.13;;;1.00;;
77736;SDS011;66903;59.926;30.404;2023-05-20T09:14:46;4.10;;;1.23;;
77736;SDS011;66903;59.926;30.404;2023-05-20T09:19:51;5.85;;;1.27;;
77736;SDS011;66903;59.926;30.404;2023-05-20T09:24:52;4.55;;;1.23;;
77736;SDS011;66903;59.926;30.404;2023-05-20T09:29:54;4.07;;;1.30;;
77736;SDS011;66903;59.926;30.404;2023-05-20T09:34:54;5.20;;;1.63;;
77736;SDS011;66903;59.926;30.404;2023-05-20T09:39:56;4.38;;;1.33;;
77736;SDS011;66903;59.926;30.404;2023-05-20T09:45:00;2.15;;;0.63;;
77736;SDS011;66903;59.926;30.404;2023-05-20T09:50:04;3.60;;;1.00;;
77736;SDS011;66903;59.926;30.404;2023-05-20T09:55:07;6.15;;;1.77;;
77736;SDS011;66903;59.926;30.404;2023-05-20T10:00:12;3.60;;;0.90;;
77736;SDS011;66903;59.926;30.404;2023-05-20T10:05:20;2.90;;;0.95;;
77736;SDS011;66903;59.926;30.404;2023-05-20T10:20:57;3.72;;;0.95;;
77736;SDS011;66903;59.926;30.404;2023-05-20T10:25:57;3.70;;;0.68;;
77736;SDS011;66903;59.926;30.404;2023-05-20T10:30:58;3.28;;;0.70;;
77736;SDS011;66903;59.926;30.404;2023-05-20T10:35:59;1.73;;;0.60;;
77736;SDS011;66903;59.926;30.404;2023-05-20T10:41:06;2.10;;;0.50;;
77736;SDS011;66903;59.926;30.404;2023-05-20T10:46:16;1.60;;;0.52;;
77736;SDS011;66903;59.926;30.404;2023-05-20T10:51:17;1.75;;;0.52;;
77736;SDS011;66903;59.926;30.404;2023-05-20T10:56:23;2.00;;;0.57;;
77736;SDS011;66903;59.926;30.404;2023-05-20T11:01:25;1.88;;;0.60;;
77736;SDS011;66903;59.926;30.404;2023-05-20T11:06:26;1.98;;;0.68;;
77736;SDS011;66903;59.926;30.404;2023-05-20T11:11:27;2.15;;;0.57;;
77736;SDS011;66903;59.926;30.404;2023-05-20T11:16:28;2.05;;;0.70;;
77736;SDS011;66903;59.926;30.404;2023-05-20T11:21:28;2.65;;;0.70;;
77736;SDS011;66903;59.926;30.404;2023-05-20T11:26:30;1.98;;;0.40;;
77736;SDS011;66903;59.926;30.404;2023-05-20T11:31:32;11.45;;;1.27;;
77736;SDS011;66903;59.926;30.404;2023-05-20T11:36:33;8.38;;;1.00;;
77736;SDS011;66903;59.926;30.404;2023-05-20T11:41:33;2.28;;;0.50;;
77736;SDS011;66903;59.926;30.404;2023-05-20T11:46:34;4.10;;;0.50;;
77736;SDS011;66903;59.926;30.404;2023-05-20T11:51:43;3.40;;;0.63;;
77736;SDS011;66903;59.926;30.404;2023-05-20T11:56:44;4.88;;;0.57;;
77736;SDS011;66903;59.926;30.404;2023-05-20T12:01:44;8.75;;;3.58;;
77736;SDS011;66903;59.926;30.404;2023-05-20T12:06:45;2.63;;;0.65;;
77736;SDS011;66903;59.926;30.404;2023-05-20T12:11:46;5.85;;;0.40;;
77736;SDS011;66903;59.926;30.404;2023-05-20T12:16:46;2.83;;;0.52;;
77736;SDS011;66903;59.926;30.404;2023-05-20T12:21:47;9.57;;;0.60;;
77736;SDS011;66903;59.926;30.404;2023-05-20T12:26:47;1.85;;;0.63;;
77736;SDS011;66903;59.926;30.404;2023-05-20T12:31:48;1.42;;;0.55;;
77736;SDS011;66903;59.926;30.404;2023-05-20T12:36:48;1.15;;;0.40;;
77736;SDS011;66903;59.926;30.404;2023-05-20T12:41:49;2.53;;;0.93;;
77736;SDS011;66903;59.926;30.404;2023-05-20T12:46:50;6.53;;;0.60;;
77736;SDS011;66903;59.926;30.404;2023-05-20T12:51:50;2.63;;;0.50;;
77736;SDS011;66903;59.926;30.404;2023-05-20T12:56:51;1.63;;;0.45;;
77736;SDS011;66903;59.926;30.404;2023-05-20T13:01:51;2.42;;;0.43;;
77736;SDS011;66903;59.926;30.404;2023-05-20T13:06:52;1.73;;;0.55;;
77736;SDS011;66903;59.926;30.404;2023-05-20T13:11:52;9.18;;;1.58;;
77736;SDS011;66903;59.926;30.404;2023-05-20T13:16:53;2.85;;;0.80;;
77736;SDS011;66903;59.926;30.404;2023-05-20T13:21:54;1.92;;;0.65;;
77736;SDS011;66903;59.926;30.404;2023-05-20T13:26:54;1.30;;;0.40;;
77736;SDS011;66903;59.926;30.404;2023-05-20T13:31:55;1.30;;;0.50;;
77736;SDS011;66903;59.926;30.404;2023-05-20T13:36:56;1.15;;;0.30;;
77736;SDS011;66903;59.926;30.404;2023-05-20T13:41:57;2.75;;;0.43;;
77736;SDS011;66903;59.926;30.404;2023-05-20T13:46:58;0.47;;;0.30;;
77736;SDS011;66903;59.926;30.404;2023-05-20T13:51:58;1.73;;;0.40;;
77736;SDS011;66903;59.926;30.404;2023-05-20T13:56:58;1.55;;;0.60;;
77736;SDS011;66903;59.926;30.404;2023-05-20T14:02:00;3.08;;;0.68;;
77736;SDS011;66903;59.926;30.404;2023-05-20T14:07:01;1.23;;;0.43;;
77736;SDS011;66903;59.926;30.404;2023-05-20T14:12:03;1.63;;;0.55;;
77736;SDS011;66903;59.926;30.404;2023-05-20T14:17:04;1.10;;;0.50;;
77736;SDS011;66903;59.926;30.404;2023-05-20T14:22:05;0.73;;;0.40;;
77736;SDS011;66903;59.926;30.404;2023-05-20T14:27:05;1.65;;;0.43;;
77736;SDS011;66903;59.926;30.404;2023-05-20T14:32:07;1.08;;;0.55;;
77736;SDS011;66903;59.926;30.404;2023-05-20T14:37:09;1.45;;;0.50;;
77736;SDS011;66903;59.926;30.404;2023-05-20T14:42:10;2.25;;;0.70;;
77736;SDS011;66903;59.926;30.404;2023-05-20T14:47:11;6.43;;;0.90;;
77736;SDS011;66903;59.926;30.404;2023-05-20T14:52:15;2.28;;;0.55;;
77736;SDS011;66903;59.926;30.404;2023-05-20T14:57:16;2.20;;;0.77;;
77736;SDS011;66903;59.926;30.404;2023-05-20T15:02:17;2.13;;;0.60;;
77736;SDS011;66903;59.926;30.404;2023-05-20T15:07:18;1.80;;;0.73;;
77736;SDS011;66903;59.926;30.404;2023-05-20T15:12:19;2.55;;;0.80;;
77736;SDS011;66903;59.926;30.404;2023-05-20T15:17:19;3.45;;;0.55;;
77736;SDS011;66903;59.926;30.404;2023-05-20T15:22:20;1.63;;;0.60;;
77736;SDS011;66903;59.926;30.404;2023-05-20T15:27:20;3.30;;;0.77;;
77736;SDS011;66903;59.926;30.404;2023-05-20T15:32:21;1.88;;;0.68;;
77736;SDS011;66903;59.926;30.404;2023-05-20T15:37:22;1.60;;;0.55;;
77736;SDS011;66903;59.926;30.404;2023-05-20T15:42:22;1.35;;;0.50;;
77736;SDS011;66903;59.926;30.404;2023-05-20T15:47:23;2.35;;;0.73;;
77736;SDS011;66903;59.926;30.404;2023-05-20T15:52:24;2.30;;;0.60;;
77736;SDS011;66903;59.926;30.404;2023-05-20T15:57:24;2.20;;;0.60;;
77736;SDS011;66903;59.926;30.404;2023-05-20T16:02:25;2.20;;;0.73;;
77736;SDS011;66903;59.926;30.404;2023-05-20T16:07:26;1.85;;;0.50;;
77736;SDS011;66903;59.926;30.404;2023-05-20T16:12:26;1.27;;;0.60;;
77736;SDS011;66903;59.926;30.404;2023-05-20T16:17:27;1.05;;;0.43;;
77736;SDS011;66903;59.926;30.404;2023-05-20T16:22:27;1.40;;;0.50;;
77736;SDS011;66903;59.926;30.404;2023-05-20T16:27:28;0.75;;;0.30;;
77736;SDS011;66903;59.926;30.404;2023-05-20T16:32:28;3.72;;;0.65;;
77736;SDS011;66903;59.926;30.404;2023-05-20T16:37:29;1.25;;;0.63;;
77736;SDS011;66903;59.926;30.404;2023-05-20T16:42:29;0.80;;;0.30;;
77736;SDS011;66903;59.926;30.404;2023-05-20T16:47:30;1.88;;;0.70;;
77736;SDS011;66903;59.926;30.404;2023-05-20T16:52:32;1.52;;;0.50;;
77736;SDS011;66903;59.926;30.404;2023-05-20T16:57:33;1.25;;;0.50;;
77736;SDS011;66903;59.926;30.404;2023-05-20T17:02:34;0.82;;;0.43;;
77736;SDS011;66903;59.926;30.404;2023-05-20T17:07:35;1.63;;;0.47;;
77736;SDS011;66903;59.926;30.404;2023-05-20T17:12:35;1.38;;;0.47;;
77736;SDS011;66903;59.926;30.404;2023-05-20T17:17:36;1.83;;;0.50;;
77736;SDS011;66903;59.926;30.404;2023-05-20T17:22:36;1.27;;;0.55;;
77736;SDS011;66903;59.926;30.404;2023-05-20T17:27:37;6.10;;;0.70;;
77736;SDS011;66903;59.926;30.404;2023-05-20T17:32:38;11.52;;;1.00;;
77736;SDS011;66903;59.926;30.404;2023-05-20T17:37:39;1.67;;;0.55;;
77736;SDS011;66903;59.926;30.404;2023-05-20T17:42:40;3.92;;;0.68;;
77736;SDS011;66903;59.926;30.404;2023-05-20T17:47:40;4.00;;;0.80;;
77736;SDS011;66903;59.926;30.404;2023-05-20T17:52:41;3.17;;;0.73;;
77736;SDS011;66903;59.926;30.404;2023-05-20T17:57:41;2.35;;;0.75;;
77736;SDS011;66903;59.926;30.404;2023-05-20T18:02:42;2.17;;;0.60;;
77736;SDS011;66903;59.926;30.404;2023-05-20T18:07:46;5.13;;;1.60;;
77736;SDS011;66903;59.926;30.404;2023-05-20T18:12:47;2.83;;;0.65;;
77736;SDS011;66903;59.926;30.404;2023-05-20T18:17:48;3.33;;;0.70;;
77736;SDS011;66903;59.926;30.404;2023-05-20T18:22:48;2.72;;;0.80;;
77736;SDS011;66903;59.926;30.404;2023-05-20T18:27:51;2.35;;;0.60;;
77736;SDS011;66903;59.926;30.404;2023-05-20T18:32:51;3.95;;;0.80;;
77736;SDS011;66903;59.926;30.404;2023-05-20T18:37:52;1.42;;;0.50;;
77736;SDS011;66903;59.926;30.404;2023-05-20T18:42:52;2.63;;;0.70;;
77736;SDS011;66903;59.926;30.404;2023-05-20T18:47:53;2.35;;;0.60;;
77736;SDS011;66903;59.926;30.404;2023-05-20T18:52:56;1.45;;;0.55;;
77736;SDS011;66903;59.926;30.404;2023-05-20T18:57:57;2.97;;;0.65;;
77736;SDS011;66903;59.926;30.404;2023-05-20T19:02:57;2.50;;;0.80;;
77736;SDS011;66903;59.926;30.404;2023-05-20T19:07:58;1.65;;;0.65;;
77736;SDS011;66903;59.926;30.404;2023-05-20T19:12:59;1.73;;;0.50;;
77736;SDS011;66903;59.926;30.404;2023-05-20T19:18:00;1.45;;;0.50;;
77736;SDS011;66903;59.926;30.404;2023-05-20T19:23:00;2.03;;;0.45;;
77736;SDS011;66903;59.926;30.404;2023-05-20T19:28:01;2.35;;;0.60;;
77736;SDS011;66903;59.926;30.404;2023-05-20T19:33:03;1.67;;;0.52;;
77736;SDS011;66903;59.926;30.404;2023-05-20T19:38:04;2.22;;;0.73;;
77736;SDS011;66903;59.926;30.404;2023-05-20T19:43:05;1.90;;;0.40;;
77736;SDS011;66903;59.926;30.404;2023-05-20T19:48:06;1.17;;;0.50;;
77736;SDS011;66903;59.926;30.404;2023-05-20T19:53:08;1.52;;;0.60;;
77736;SDS011;66903;59.926;30.404;2023-05-20T19:58:08;3.05;;;0.68;;
77736;SDS011;66903;59.926;30.404;2023-05-20T20:03:10;1.50;;;0.60;;
77736;SDS011;66903;59.926;30.404;2023-05-20T20:08:11;6.82;;;0.85;;
77736;SDS011;66903;59.926;30.404;2023-05-20T20:13:11;1.75;;;0.50;;
77736;SDS011;66903;59.926;30.404;2023-05-20T20:18:12;3.35;;;0.85;;
77736;SDS011;66903;59.926;30.404;2023-05-20T20:23:12;3.55;;;0.80;;
77736;SDS011;66903;59.926;30.404;2023-05-20T20:28:13;3.30;;;0.90;;
77736;SDS011;66903;59.926;30.404;2023-05-20T20:33:14;3.60;;;1.33;;
77736;SDS011;66903;59.926;30.404;2023-05-20T20:38:14;4.10;;;0.75;;
77736;SDS011;66903;59.926;30.404;2023-05-20T20:43:15;2.92;;;0.88;;
77736;SDS011;66903;59.926;30.404;2023-05-20T20:48:18;2.03;;;0.85;;
77736;SDS011;66903;59.926;30.404;2023-05-20T20:53:19;4.88;;;1.10;;
77736;SDS011;66903;59.926;30.404;2023-05-20T20:58:19;4.30;;;0.90;;
77736;SDS011;66903;59.926;30.404;2023-05-20T21:03:20;7.30;;;1.00;;
77736;SDS011;66903;59.926;30.404;2023-05-20T21:08:22;3.03;;;0.90;;
77736;SDS011;66903;59.926;30.404;2023-05-20T21:13:26;3.05;;;1.10;;
77736;SDS011;66903;59.926;30.404;2023-05-20T21:18:27;4.47;;;1.10;;
77736;SDS011;66903;59.926;30.404;2023-05-20T21:23:28;3.00;;;0.90;;
77736;SDS011;66903;59.926;30.404;2023-05-20T21:28:28;4.53;;;0.90;;
77736;SDS011;66903;59.926;30.404;2023-05-20T21:33:29;1.88;;;0.80;;
77736;SDS011;66903;59.926;30.404;2023-05-20T21:38:30;7.20;;;1.85;;
77736;SDS011;66903;59.926;30.404;2023-05-20T21:43:30;10.00;;;2.50;;
77736;SDS011;66903;59.926;30.404;2023-05-20T21:48:30;7.50;;;1.63;;
77736;SDS011;66903;59.926;30.404;2023-05-20T21:53:31;7.32;;;1.80;;
77736;SDS011;66903;59.926;30.404;2023-05-20T21:58:31;4.20;;;1.40;;
77736;SDS011;66903;59.926;30.404;2023-05-20T22:03:34;4.78;;;1.20;;
77736;SDS011;66903;59.926;30.404;2023-05-20T22:08:34;3.92;;;1.05;;
77736;SDS011;66903;59.926;30.404;2023-05-20T22:13:35;6.50;;;1.30;;
77736;SDS011;66903;59.926;30.404;2023-05-20T22:18:40;5.00;;;1.30;;
77736;SDS011;66903;59.926;30.404;2023-05-20T22:23:41;5.25;;;1.10;;
77736;SDS011;66903;59.926;30.404;2023-05-20T22:28:42;4.88;;;1.10;;
77736;SDS011;66903;59.926;30.404;2023-05-20T22:33:42;3.22;;;1.10;;
77736;SDS011;66903;59.926;30.404;2023-05-20T22:38:43;3.08;;;0.93;;
77736;SDS011;66903;59.926;30.404;2023-05-20T22:43:43;5.47;;;1.08;;
77736;SDS011;66903;59.926;30.404;2023-05-20T22:48:44;2.95;;;0.98;;
77736;SDS011;66903;59.926;30.404;2023-05-20T22:53:44;3.80;;;0.90;;
77736;SDS011;66903;59.926;30.404;2023-05-20T22:58:45;3.58;;;1.10;;
77736;SDS011;66903;59.926;30.404;2023-05-20T23:03:45;3.67;;;1.23;;
77736;SDS011;66903;59.926;30.404;2023-05-20T23:08:46;4.78;;;1.17;;
77736;SDS011;66903;59.926;30.404;2023-05-20T23:13:46;3.63;;;0.88;;
77736;SDS011;66903;59.926;30.404;2023-05-20T23:18:47;3.05;;;1.20;;
77736;SDS011;66903;59.926;30.404;2023-05-20T23:23:47;2.88;;;1.10;;
77736;SDS011;66903;59.926;30.404;2023-05-20T23:28:48;5.90;;;1.00;;
77736;SDS011;66903;59.926;30.404;2023-05-20T23:33:48;2.78;;;1.00;;
77736;SDS011;66903;59.926;30.404;2023-05-20T23:38:49;3.03;;;0.93;;
77736;SDS011;66903;59.926;30.404;2023-05-20T23:43:51;2.63;;;0.95;;
77736;SDS011;66903;59.926;30.404;2023-05-20T23:48:52;3.75;;;1.10;;
77736;SDS011;66903;59.926;30.404;2023-05-20T23:53:53;3.72;;;1.20;;
77736;SDS011;66903;59.926;30.404;2023-05-20T23:58:53;3.05;;;1.00;;
